sensor_id;sensor_type;location;lat;lon;timestamp;pressure;altitude;pressure_sealevel;temperature;humidity
29239;BME280;16267;48.194;11.546;2023-06-14T00:01:45;95508.09;;;17.52;38.41
29239;BME280;16267;48.194;11.546;2023-06-14T00:04:12;95500.38;;;17.51;38.17
29239;BME280;16267;48.194;11.546;2023-06-14T00:06:39;95501.47;;;17.44;38.19
29239;BME280;16267;48.194;11.546;2023-06-14T00:09:07;95505.09;;;17.41;38.23
29239;BME280;16267;48.194;11.546;2023-06-14T00:11:34;95501.78;;;17.37;38.44
29239;BME280;16267;48.194;11.546;2023-06-14T00:13:59;95505.41;;;17.34;38.18
29239;BME280;16267;48.194;11.546;2023-06-14T00:16:25;95503.63;;;17.31;38.48
29239;BME280;16267;48.194;11.546;2023-06-14T00:18:51;95500.59;;;17.29;38.58
29239;BME280;16267;48.194;11.546;2023-06-14T00:21:17;95502.72;;;17.25;38.58
29239;BME280;16267;48.194;11.546;2023-06-14T00:23:43;95500.19;;;17.21;38.91
29239;BME280;16267;48.194;11.546;2023-06-14T00:26:09;95500.31;;;17.17;39.61
29239;BME280;16267;48.194;11.546;2023-06-14T00:28:35;95491.00;;;17.09;39.86
29239;BME280;16267;48.194;11.546;2023-06-14T00:31:00;95502.44;;;17.04;40.45
29239;BME280;16267;48.194;11.546;2023-06-14T00:33:26;95491.47;;;16.99;40.59
29239;BME280;16267;48.194;11.546;2023-06-14T00:35:52;95488.59;;;16.93;40.32
29239;BME280;16267;48.194;11.546;2023-06-14T00:38:20;95491.47;;;16.89;39.93
29239;BME280;16267;48.194;11.546;2023-06-14T00:40:46;95497.81;;;16.86;39.83
29239;BME280;16267;48.194;11.546;2023-06-14T00:43:12;95496.00;;;16.83;39.81
29239;BME280;16267;48.194;11.546;2023-06-14T00:45:38;95503.09;;;16.81;39.79
29239;BME280;16267;48.194;11.546;2023-06-14T00:48:04;95498.56;;;16.78;39.87
29239;BME280;16267;48.194;11.546;2023-06-14T00:50:32;95497.47;;;16.75;39.82
29239;BME280;16267;48.194;11.546;2023-06-14T00:53:02;95494.94;;;16.71;39.79
29239;BME280;16267;48.194;11.546;2023-06-14T00:55:28;95493.88;;;16.69;39.80
29239;BME280;16267;48.194;11.546;2023-06-14T00:57:55;95500.94;;;16.66;40.00
29239;BME280;16267;48.194;11.546;2023-06-14T01:00:22;95501.84;;;16.63;39.88
29239;BME280;16267;48.194;11.546;2023-06-14T01:02:48;95510.13;;;16.60;40.03
29239;BME280;16267;48.194;11.546;2023-06-14T01:05:15;95507.13;;;16.58;40.00
29239;BME280;16267;48.194;11.546;2023-06-14T01:08:11;95506.19;;;16.51;39.98
29239;BME280;16267;48.194;11.546;2023-06-14T01:11:18;95503.63;;;16.48;40.38
29239;BME280;16267;48.194;11.546;2023-06-14T01:13:49;95498.06;;;16.42;41.19
29239;BME280;16267;48.194;11.546;2023-06-14T01:16:16;95501.38;;;16.37;41.12
29239;BME280;16267;48.194;11.546;2023-06-14T01:18:44;95496.84;;;16.34;41.15
29239;BME280;16267;48.194;11.546;2023-06-14T01:21:24;95495.03;;;16.31;40.77
29239;BME280;16267;48.194;11.546;2023-06-14T01:23:51;95491.75;;;16.27;40.71
29239;BME280;16267;48.194;11.546;2023-06-14T01:26:20;95490.22;;;16.26;41.19
29239;BME280;16267;48.194;11.546;2023-06-14T01:28:46;95491.13;;;16.23;41.59
29239;BME280;16267;48.194;11.546;2023-06-14T01:31:19;95497.88;;;16.18;41.56
29239;BME280;16267;48.194;11.546;2023-06-14T01:33:48;95490.22;;;16.17;41.28
29239;BME280;16267;48.194;11.546;2023-06-14T01:36:16;95489.59;;;16.13;42.17
29239;BME280;16267;48.194;11.546;2023-06-14T01:38:44;95492.13;;;16.07;42.78
29239;BME280;16267;48.194;11.546;2023-06-14T01:41:11;95487.00;;;16.00;42.88
29239;BME280;16267;48.194;11.546;2023-06-14T01:43:39;95484.16;;;15.94;43.10
29239;BME280;16267;48.194;11.546;2023-06-14T01:46:06;95483.97;;;15.89;43.36
29239;BME280;16267;48.194;11.546;2023-06-14T01:48:32;95489.22;;;15.83;43.39
29239;BME280;16267;48.194;11.546;2023-06-14T01:50:58;95480.47;;;15.79;43.61
29239;BME280;16267;48.194;11.546;2023-06-14T01:53:24;95481.84;;;15.74;42.92
29239;BME280;16267;48.194;11.546;2023-06-14T01:55:50;95484.22;;;15.72;43.07
29239;BME280;16267;48.194;11.546;2023-06-14T01:58:16;95483.16;;;15.70;42.65
29239;BME280;16267;48.194;11.546;2023-06-14T02:00:44;95473.22;;;15.67;43.21
29239;BME280;16267;48.194;11.546;2023-06-14T02:03:11;95482.50;;;15.66;43.15
29239;BME280;16267;48.194;11.546;2023-06-14T02:05:37;95481.16;;;15.61;43.38
29239;BME280;16267;48.194;11.546;2023-06-14T02:08:05;95479.63;;;15.60;42.97
29239;BME280;16267;48.194;11.546;2023-06-14T02:10:31;95484.00;;;15.57;44.04
29239;BME280;16267;48.194;11.546;2023-06-14T02:12:57;95476.00;;;15.54;43.74
29239;BME280;16267;48.194;11.546;2023-06-14T02:15:23;95482.31;;;15.51;44.22
29239;BME280;16267;48.194;11.546;2023-06-14T02:17:58;95480.16;;;15.46;44.00
29239;BME280;16267;48.194;11.546;2023-06-14T02:20:24;95481.81;;;15.43;44.46
29239;BME280;16267;48.194;11.546;2023-06-14T02:22:49;95482.41;;;15.38;44.93
29239;BME280;16267;48.194;11.546;2023-06-14T02:25:18;95474.09;;;15.32;45.31
29239;BME280;16267;48.194;11.546;2023-06-14T02:27:44;95476.94;;;15.29;44.88
29239;BME280;16267;48.194;11.546;2023-06-14T02:30:11;95481.72;;;15.25;44.84
29239;BME280;16267;48.194;11.546;2023-06-14T02:32:53;95482.63;;;15.22;44.54
29239;BME280;16267;48.194;11.546;2023-06-14T02:35:19;95479.59;;;15.20;44.41
29239;BME280;16267;48.194;11.546;2023-06-14T02:37:46;95484.69;;;15.17;44.48
29239;BME280;16267;48.194;11.546;2023-06-14T02:40:12;95485.16;;;15.16;44.27
29239;BME280;16267;48.194;11.546;2023-06-14T02:42:38;95483.63;;;15.15;44.87
29239;BME280;16267;48.194;11.546;2023-06-14T02:45:04;95483.75;;;15.11;45.51
29239;BME280;16267;48.194;11.546;2023-06-14T02:47:30;95482.38;;;15.07;45.66
29239;BME280;16267;48.194;11.546;2023-06-14T02:49:56;95484.88;;;15.01;46.16
29239;BME280;16267;48.194;11.546;2023-06-14T02:52:21;95488.16;;;14.96;46.42
29239;BME280;16267;48.194;11.546;2023-06-14T02:54:47;95480.31;;;14.89;46.61
29239;BME280;16267;48.194;11.546;2023-06-14T02:57:13;95488.97;;;14.84;47.08
29239;BME280;16267;48.194;11.546;2023-06-14T02:59:39;95486.09;;;14.78;47.12
29239;BME280;16267;48.194;11.546;2023-06-14T03:02:05;95487.84;;;14.72;47.25
29239;BME280;16267;48.194;11.546;2023-06-14T03:04:31;95485.25;;;14.68;46.75
29239;BME280;16267;48.194;11.546;2023-06-14T03:07:03;95488.41;;;14.67;46.52
29239;BME280;16267;48.194;11.546;2023-06-14T03:09:36;95482.69;;;14.65;46.81
29239;BME280;16267;48.194;11.546;2023-06-14T03:12:06;95495.13;;;14.62;47.12
29239;BME280;16267;48.194;11.546;2023-06-14T03:14:32;95496.44;;;14.58;47.45
29239;BME280;16267;48.194;11.546;2023-06-14T03:16:58;95496.22;;;14.52;47.72
29239;BME280;16267;48.194;11.546;2023-06-14T03:19:25;95501.72;;;14.48;47.76
29239;BME280;16267;48.194;11.546;2023-06-14T03:21:52;95503.78;;;14.44;48.12
29239;BME280;16267;48.194;11.546;2023-06-14T03:24:19;95505.09;;;14.40;48.36
29239;BME280;16267;48.194;11.546;2023-06-14T03:26:45;95507.16;;;14.36;48.52
29239;BME280;16267;48.194;11.546;2023-06-14T03:29:12;95506.09;;;14.33;48.01
29239;BME280;16267;48.194;11.546;2023-06-14T03:32:01;95507.28;;;14.32;47.81
29239;BME280;16267;48.194;11.546;2023-06-14T03:34:27;95518.06;;;14.32;47.39
29239;BME280;16267;48.194;11.546;2023-06-14T03:36:53;95514.63;;;14.32;47.05
29239;BME280;16267;48.194;11.546;2023-06-14T03:39:19;95518.06;;;14.32;46.74
29239;BME280;16267;48.194;11.546;2023-06-14T03:41:45;95520.03;;;14.32;46.92
29239;BME280;16267;48.194;11.546;2023-06-14T03:44:15;95509.22;;;14.32;46.90
29239;BME280;16267;48.194;11.546;2023-06-14T03:46:45;95518.06;;;14.32;46.84
29239;BME280;16267;48.194;11.546;2023-06-14T03:49:12;95521.50;;;14.33;46.98
29239;BME280;16267;48.194;11.546;2023-06-14T03:51:42;95519.59;;;14.33;46.30
29239;BME280;16267;48.194;11.546;2023-06-14T03:54:08;95522.59;;;14.35;46.31
29239;BME280;16267;48.194;11.546;2023-06-14T03:56:34;95517.19;;;14.35;46.54
29239;BME280;16267;48.194;11.546;2023-06-14T03:59:00;95532.97;;;14.37;46.23
29239;BME280;16267;48.194;11.546;2023-06-14T04:01:25;95529.06;;;14.38;46.42
29239;BME280;16267;48.194;11.546;2023-06-14T04:03:57;95528.19;;;14.41;46.85
29239;BME280;16267;48.194;11.546;2023-06-14T04:06:23;95530.91;;;14.41;46.75
29239;BME280;16267;48.194;11.546;2023-06-14T04:08:51;95540.06;;;14.43;46.67
29239;BME280;16267;48.194;11.546;2023-06-14T04:11:17;95541.16;;;14.46;46.62
29239;BME280;16267;48.194;11.546;2023-06-14T04:13:44;95541.16;;;14.46;46.13
29239;BME280;16267;48.194;11.546;2023-06-14T04:16:10;95543.75;;;14.49;46.38
29239;BME280;16267;48.194;11.546;2023-06-14T04:18:36;95544.81;;;14.52;46.56
29239;BME280;16267;48.194;11.546;2023-06-14T04:21:10;95553.25;;;14.54;46.38
29239;BME280;16267;48.194;11.546;2023-06-14T04:23:35;95552.38;;;14.57;46.56
29239;BME280;16267;48.194;11.546;2023-06-14T04:26:01;95548.81;;;14.60;46.45
29239;BME280;16267;48.194;11.546;2023-06-14T04:28:27;95560.69;;;14.63;46.47
29239;BME280;16267;48.194;11.546;2023-06-14T04:30:53;95565.97;;;14.66;46.30
29239;BME280;16267;48.194;11.546;2023-06-14T04:33:19;95554.72;;;14.68;46.75
29239;BME280;16267;48.194;11.546;2023-06-14T04:35:45;95560.78;;;14.72;47.14
29239;BME280;16267;48.194;11.546;2023-06-14T04:38:12;95555.69;;;14.74;46.70
29239;BME280;16267;48.194;11.546;2023-06-14T04:40:38;95560.53;;;14.79;47.17
29239;BME280;16267;48.194;11.546;2023-06-14T04:43:09;95553.94;;;14.80;48.48
29239;BME280;16267;48.194;11.546;2023-06-14T04:45:38;95556.19;;;14.82;48.87
29239;BME280;16267;48.194;11.546;2023-06-14T04:48:05;95557.28;;;14.84;49.29
29239;BME280;16267;48.194;11.546;2023-06-14T04:50:32;95553.69;;;14.87;48.26
29239;BME280;16267;48.194;11.546;2023-06-14T04:52:58;95562.88;;;14.90;49.38
29239;BME280;16267;48.194;11.546;2023-06-14T04:55:25;95567.41;;;14.93;48.97
29239;BME280;16267;48.194;11.546;2023-06-14T04:57:52;95570.28;;;14.99;48.37
29239;BME280;16267;48.194;11.546;2023-06-14T05:00:20;95565.06;;;15.04;47.83
29239;BME280;16267;48.194;11.546;2023-06-14T05:02:46;95571.44;;;15.10;48.68
29239;BME280;16267;48.194;11.546;2023-06-14T05:05:12;95575.53;;;15.15;49.16
29239;BME280;16267;48.194;11.546;2023-06-14T05:07:38;95570.75;;;15.19;48.79
29239;BME280;16267;48.194;11.546;2023-06-14T05:10:05;95573.94;;;15.27;48.27
29239;BME280;16267;48.194;11.546;2023-06-14T05:12:32;95573.69;;;15.34;48.43
29239;BME280;16267;48.194;11.546;2023-06-14T05:14:57;95581.25;;;15.39;48.32
29239;BME280;16267;48.194;11.546;2023-06-14T05:17:24;95581.44;;;15.45;48.49
29239;BME280;16267;48.194;11.546;2023-06-14T05:19:50;95587.34;;;15.52;48.30
29239;BME280;16267;48.194;11.546;2023-06-14T05:22:16;95589.03;;;15.59;48.06
29239;BME280;16267;48.194;11.546;2023-06-14T05:24:41;95591.91;;;15.65;47.79
29239;BME280;16267;48.194;11.546;2023-06-14T05:27:07;95583.25;;;15.70;47.27
29239;BME280;16267;48.194;11.546;2023-06-14T05:29:33;95586.47;;;15.77;47.39
29239;BME280;16267;48.194;11.546;2023-06-14T05:31:59;95598.53;;;15.86;47.36
29239;BME280;16267;48.194;11.546;2023-06-14T05:34:25;95606.69;;;15.95;46.34
29239;BME280;16267;48.194;11.546;2023-06-14T05:36:51;95596.19;;;16.06;46.23
29239;BME280;16267;48.194;11.546;2023-06-14T05:39:16;95592.34;;;16.16;46.45
29239;BME280;16267;48.194;11.546;2023-06-14T05:41:42;95593.84;;;16.26;46.76
29239;BME280;16267;48.194;11.546;2023-06-14T05:44:09;95591.47;;;16.38;47.00
29239;BME280;16267;48.194;11.546;2023-06-14T05:46:34;95595.28;;;16.49;46.31
29239;BME280;16267;48.194;11.546;2023-06-14T05:49:00;95592.44;;;16.62;46.37
29239;BME280;16267;48.194;11.546;2023-06-14T05:51:26;95593.81;;;16.76;46.37
29239;BME280;16267;48.194;11.546;2023-06-14T05:53:52;95605.31;;;16.89;46.01
29239;BME280;16267;48.194;11.546;2023-06-14T05:56:18;95591.63;;;17.02;45.14
29239;BME280;16267;48.194;11.546;2023-06-14T05:58:45;95602.03;;;17.13;45.21
29239;BME280;16267;48.194;11.546;2023-06-14T06:01:11;95591.94;;;17.13;44.71
29239;BME280;16267;48.194;11.546;2023-06-14T06:03:38;95596.31;;;17.29;44.51
29239;BME280;16267;48.194;11.546;2023-06-14T06:06:04;95591.91;;;17.41;44.28
29239;BME280;16267;48.194;11.546;2023-06-14T06:08:30;95596.72;;;17.46;43.87
29239;BME280;16267;48.194;11.546;2023-06-14T06:10:57;95595.97;;;17.55;43.56
29239;BME280;16267;48.194;11.546;2023-06-14T06:13:22;95598.50;;;17.58;43.36
29239;BME280;16267;48.194;11.546;2023-06-14T06:15:48;95601.50;;;17.70;43.69
29239;BME280;16267;48.194;11.546;2023-06-14T06:18:14;95603.03;;;17.80;43.74
29239;BME280;16267;48.194;11.546;2023-06-14T06:20:40;95606.75;;;17.92;43.24
29239;BME280;16267;48.194;11.546;2023-06-14T06:23:06;95605.22;;;18.00;42.70
29239;BME280;16267;48.194;11.546;2023-06-14T06:25:33;95613.78;;;18.08;42.87
29239;BME280;16267;48.194;11.546;2023-06-14T06:27:58;95620.69;;;18.18;42.49
29239;BME280;16267;48.194;11.546;2023-06-14T06:30:25;95611.00;;;18.26;42.18
29239;BME280;16267;48.194;11.546;2023-06-14T06:32:51;95617.03;;;18.30;42.10
29239;BME280;16267;48.194;11.546;2023-06-14T06:35:17;95618.50;;;18.40;42.36
29239;BME280;16267;48.194;11.546;2023-06-14T06:37:43;95614.22;;;18.48;42.24
29239;BME280;16267;48.194;11.546;2023-06-14T06:40:09;95616.47;;;18.50;42.52
29239;BME280;16267;48.194;11.546;2023-06-14T06:42:36;95617.34;;;18.56;42.78
29239;BME280;16267;48.194;11.546;2023-06-14T06:45:02;95617.31;;;18.65;42.22
29239;BME280;16267;48.194;11.546;2023-06-14T06:47:28;95609.72;;;18.69;42.08
29239;BME280;16267;48.194;11.546;2023-06-14T06:49:53;95623.28;;;18.79;42.09
29239;BME280;16267;48.194;11.546;2023-06-14T06:52:19;95616.75;;;18.85;42.27
29239;BME280;16267;48.194;11.546;2023-06-14T06:54:45;95624.53;;;18.92;42.15
29239;BME280;16267;48.194;11.546;2023-06-14T06:57:11;95628.16;;;18.99;42.08
29239;BME280;16267;48.194;11.546;2023-06-14T06:59:37;95627.34;;;19.07;42.17
29239;BME280;16267;48.194;11.546;2023-06-14T07:02:03;95622.56;;;19.17;42.11
29239;BME280;16267;48.194;11.546;2023-06-14T07:04:29;95619.50;;;19.24;41.58
29239;BME280;16267;48.194;11.546;2023-06-14T07:06:55;95617.44;;;19.34;41.13
29239;BME280;16267;48.194;11.546;2023-06-14T07:09:21;95625.25;;;19.41;41.14
29239;BME280;16267;48.194;11.546;2023-06-14T07:11:47;95631.09;;;19.49;41.04
29239;BME280;16267;48.194;11.546;2023-06-14T07:14:13;95625.91;;;19.51;40.95
29239;BME280;16267;48.194;11.546;2023-06-14T07:16:39;95625.56;;;19.58;41.31
29239;BME280;16267;48.194;11.546;2023-06-14T07:19:06;95625.09;;;19.59;41.14
29239;BME280;16267;48.194;11.546;2023-06-14T07:21:32;95629.72;;;19.68;41.21
29239;BME280;16267;48.194;11.546;2023-06-14T07:23:58;95633.28;;;19.74;40.88
29239;BME280;16267;48.194;11.546;2023-06-14T07:26:24;95635.66;;;19.81;41.17
29239;BME280;16267;48.194;11.546;2023-06-14T07:28:50;95639.69;;;19.86;40.87
29239;BME280;16267;48.194;11.546;2023-06-14T07:31:16;95639.31;;;19.93;41.01
29239;BME280;16267;48.194;11.546;2023-06-14T07:33:43;95643.63;;;20.00;40.48
29239;BME280;16267;48.194;11.546;2023-06-14T07:36:09;95647.75;;;20.10;39.90
29239;BME280;16267;48.194;11.546;2023-06-14T07:38:35;95645.66;;;20.20;39.83
29239;BME280;16267;48.194;11.546;2023-06-14T07:41:02;95634.84;;;20.25;39.71
29239;BME280;16267;48.194;11.546;2023-06-14T07:43:28;95641.91;;;20.32;39.41
29239;BME280;16267;48.194;11.546;2023-06-14T07:45:54;95646.94;;;20.39;39.21
29239;BME280;16267;48.194;11.546;2023-06-14T07:48:20;95640.38;;;20.46;38.97
29239;BME280;16267;48.194;11.546;2023-06-14T07:50:46;95636.06;;;20.54;38.84
29239;BME280;16267;48.194;11.546;2023-06-14T07:53:12;95642.63;;;20.62;38.41
29239;BME280;16267;48.194;11.546;2023-06-14T07:55:37;95639.97;;;20.68;38.14
29239;BME280;16267;48.194;11.546;2023-06-14T07:58:08;95643.03;;;20.76;38.26
29239;BME280;16267;48.194;11.546;2023-06-14T08:00:34;95642.28;;;20.75;37.48
29239;BME280;16267;48.194;11.546;2023-06-14T08:03:00;95642.19;;;20.84;37.05
29239;BME280;16267;48.194;11.546;2023-06-14T08:05:27;95643.28;;;20.92;37.27
29239;BME280;16267;48.194;11.546;2023-06-14T08:07:53;95639.38;;;20.99;36.85
29239;BME280;16267;48.194;11.546;2023-06-14T08:10:19;95650.88;;;21.09;37.21
29239;BME280;16267;48.194;11.546;2023-06-14T08:12:45;95643.53;;;21.15;37.11
29239;BME280;16267;48.194;11.546;2023-06-14T08:15:11;95643.88;;;21.23;36.54
29239;BME280;16267;48.194;11.546;2023-06-14T08:17:37;95639.97;;;21.29;36.54
29239;BME280;16267;48.194;11.546;2023-06-14T08:20:03;95639.91;;;21.24;35.30
29239;BME280;16267;48.194;11.546;2023-06-14T08:22:30;95640.59;;;21.39;35.47
29239;BME280;16267;48.194;11.546;2023-06-14T08:25:02;95641.44;;;21.45;35.89
29239;BME280;16267;48.194;11.546;2023-06-14T08:27:29;95643.50;;;21.56;36.47
29239;BME280;16267;48.194;11.546;2023-06-14T08:29:55;95649.59;;;21.66;36.21
29239;BME280;16267;48.194;11.546;2023-06-14T08:32:22;95649.41;;;21.75;35.40
29239;BME280;16267;48.194;11.546;2023-06-14T08:34:48;95659.41;;;21.83;35.40
29239;BME280;16267;48.194;11.546;2023-06-14T08:37:14;95661.72;;;21.91;36.00
29239;BME280;16267;48.194;11.546;2023-06-14T08:39:40;95664.78;;;21.98;35.44
29239;BME280;16267;48.194;11.546;2023-06-14T08:42:07;95665.13;;;22.06;35.29
29239;BME280;16267;48.194;11.546;2023-06-14T08:44:34;95662.69;;;22.14;34.38
29239;BME280;16267;48.194;11.546;2023-06-14T08:47:00;95660.28;;;22.21;34.18
29239;BME280;16267;48.194;11.546;2023-06-14T08:49:26;95664.81;;;22.30;33.79
29239;BME280;16267;48.194;11.546;2023-06-14T08:51:58;95669.13;;;22.37;33.68
29239;BME280;16267;48.194;11.546;2023-06-14T08:54:28;95664.81;;;22.30;33.45
29239;BME280;16267;48.194;11.546;2023-06-14T08:56:59;95662.16;;;22.41;34.15
29239;BME280;16267;48.194;11.546;2023-06-14T08:59:29;95659.28;;;22.51;33.40
29239;BME280;16267;48.194;11.546;2023-06-14T09:01:56;95661.53;;;22.58;33.57
29239;BME280;16267;48.194;11.546;2023-06-14T09:04:23;95661.56;;;22.63;33.35
29239;BME280;16267;48.194;11.546;2023-06-14T09:06:50;95668.09;;;22.71;32.86
29239;BME280;16267;48.194;11.546;2023-06-14T09:09:22;95666.09;;;22.72;31.45
29239;BME280;16267;48.194;11.546;2023-06-14T09:11:51;95666.09;;;22.72;31.40
29239;BME280;16267;48.194;11.546;2023-06-14T09:14:23;95658.94;;;22.80;32.10
29239;BME280;16267;48.194;11.546;2023-06-14T09:16:54;95660.25;;;22.90;31.59
29239;BME280;16267;48.194;11.546;2023-06-14T09:19:24;95677.00;;;22.98;31.48
29239;BME280;16267;48.194;11.546;2023-06-14T09:21:52;95680.25;;;23.08;30.55
29239;BME280;16267;48.194;11.546;2023-06-14T09:24:19;95677.09;;;23.21;30.23
29239;BME280;16267;48.194;11.546;2023-06-14T09:26:50;95674.38;;;23.26;29.96
29239;BME280;16267;48.194;11.546;2023-06-14T09:29:17;95677.88;;;23.27;29.75
29239;BME280;16267;48.194;11.546;2023-06-14T09:31:46;95678.91;;;23.41;29.09
29239;BME280;16267;48.194;11.546;2023-06-14T09:34:13;95669.25;;;23.51;28.92
29239;BME280;16267;48.194;11.546;2023-06-14T09:36:40;95677.47;;;23.56;29.48
29239;BME280;16267;48.194;11.546;2023-06-14T09:39:08;95673.25;;;23.61;29.66
29239;BME280;16267;48.194;11.546;2023-06-14T09:41:39;95680.50;;;23.64;29.57
29239;BME280;16267;48.194;11.546;2023-06-14T09:44:08;95672.50;;;23.60;29.79
29239;BME280;16267;48.194;11.546;2023-06-14T09:46:35;95680.72;;;23.66;29.49
29239;BME280;16267;48.194;11.546;2023-06-14T09:49:03;95681.22;;;23.53;28.41
29239;BME280;16267;48.194;11.546;2023-06-14T09:51:30;95678.97;;;23.63;29.48
29239;BME280;16267;48.194;11.546;2023-06-14T09:54:01;95688.72;;;23.64;30.05
29239;BME280;16267;48.194;11.546;2023-06-14T09:56:29;95680.56;;;23.75;29.95
29239;BME280;16267;48.194;11.546;2023-06-14T09:58:57;95686.78;;;23.81;30.31
29239;BME280;16267;48.194;11.546;2023-06-14T10:01:25;95684.53;;;23.86;29.84
29239;BME280;16267;48.194;11.546;2023-06-14T10:04:13;95673.06;;;23.76;30.11
29239;BME280;16267;48.194;11.546;2023-06-14T10:06:43;95683.72;;;23.68;29.17
29239;BME280;16267;48.194;11.546;2023-06-14T10:09:10;95684.28;;;23.78;29.40
29239;BME280;16267;48.194;11.546;2023-06-14T10:11:37;95673.81;;;23.82;29.84
29239;BME280;16267;48.194;11.546;2023-06-14T10:14:11;95677.84;;;23.87;30.17
29239;BME280;16267;48.194;11.546;2023-06-14T10:16:42;95676.31;;;23.91;30.08
29239;BME280;16267;48.194;11.546;2023-06-14T10:19:25;95673.09;;;23.98;29.89
29239;BME280;16267;48.194;11.546;2023-06-14T10:22:12;95668.38;;;24.04;29.26
29239;BME280;16267;48.194;11.546;2023-06-14T10:24:45;95672.13;;;24.07;29.12
29239;BME280;16267;48.194;11.546;2023-06-14T10:27:16;95675.09;;;24.03;28.72
29239;BME280;16267;48.194;11.546;2023-06-14T10:32:18;95667.38;;;24.13;28.88
29239;BME280;16267;48.194;11.546;2023-06-14T10:34:44;95662.16;;;24.15;28.91
29239;BME280;16267;48.194;11.546;2023-06-14T10:37:13;95662.16;;;24.21;29.50
29239;BME280;16267;48.194;11.546;2023-06-14T10:39:42;95664.41;;;24.17;28.90
29239;BME280;16267;48.194;11.546;2023-06-14T10:42:08;95670.38;;;24.26;28.95
29239;BME280;16267;48.194;11.546;2023-06-14T10:47:29;95672.63;;;24.34;28.98
29239;BME280;16267;48.194;11.546;2023-06-14T10:52:26;95668.16;;;24.47;27.44
29239;BME280;16267;48.194;11.546;2023-06-14T10:55:13;95667.41;;;24.53;27.71
29239;BME280;16267;48.194;11.546;2023-06-14T10:57:51;95664.41;;;24.62;27.19
29239;BME280;16267;48.194;11.546;2023-06-14T11:00:27;95667.16;;;24.62;26.29
29239;BME280;16267;48.194;11.546;2023-06-14T11:03:50;95673.09;;;24.71;26.72
29239;BME280;16267;48.194;11.546;2023-06-14T11:06:22;95662.88;;;24.78;27.41
29239;BME280;16267;48.194;11.546;2023-06-14T11:09:11;95660.34;;;24.85;27.29
29239;BME280;16267;48.194;11.546;2023-06-14T11:11:46;95654.38;;;24.92;26.67
29239;BME280;16267;48.194;11.546;2023-06-14T11:14:12;95659.34;;;24.94;26.84
29239;BME280;16267;48.194;11.546;2023-06-14T11:16:38;95658.34;;;24.97;26.68
29239;BME280;16267;48.194;11.546;2023-06-14T11:19:05;95664.28;;;25.07;26.69
29239;BME280;16267;48.194;11.546;2023-06-14T11:21:32;95657.06;;;25.15;26.66
29239;BME280;16267;48.194;11.546;2023-06-14T11:23:59;95646.06;;;25.15;26.75
29239;BME280;16267;48.194;11.546;2023-06-14T11:26:31;95652.53;;;25.23;27.05
29239;BME280;16267;48.194;11.546;2023-06-14T11:29:00;95651.75;;;25.34;26.99
29239;BME280;16267;48.194;11.546;2023-06-14T11:31:27;95652.19;;;25.44;27.45
29239;BME280;16267;48.194;11.546;2023-06-14T11:33:58;95650.88;;;25.56;26.77
29239;BME280;16267;48.194;11.546;2023-06-14T11:36:29;95652.34;;;25.63;26.40
29239;BME280;16267;48.194;11.546;2023-06-14T11:39:03;95641.81;;;25.72;26.68
29239;BME280;16267;48.194;11.546;2023-06-14T11:41:41;95648.47;;;25.82;26.94
29239;BME280;16267;48.194;11.546;2023-06-14T11:44:08;95640.97;;;25.89;27.36
29239;BME280;16267;48.194;11.546;2023-06-14T11:46:34;95638.88;;;26.00;26.68
29239;BME280;16267;48.194;11.546;2023-06-14T11:49:02;95636.06;;;26.12;26.63
29239;BME280;16267;48.194;11.546;2023-06-14T11:51:32;95629.25;;;26.18;26.13
29239;BME280;16267;48.194;11.546;2023-06-14T11:53:58;95628.97;;;26.22;26.43
29239;BME280;16267;48.194;11.546;2023-06-14T11:56:24;95643.19;;;26.26;25.84
29239;BME280;16267;48.194;11.546;2023-06-14T11:58:52;95641.03;;;26.13;25.64
29239;BME280;16267;48.194;11.546;2023-06-14T12:01:18;95633.06;;;26.10;26.05
29239;BME280;16267;48.194;11.546;2023-06-14T12:03:48;95643.72;;;25.89;25.91
29239;BME280;16267;48.194;11.546;2023-06-14T12:06:14;95638.78;;;25.76;25.46
29239;BME280;16267;48.194;11.546;2023-06-14T12:08:43;95632.56;;;25.70;25.96
29239;BME280;16267;48.194;11.546;2023-06-14T12:11:12;95635.59;;;25.60;26.42
29239;BME280;16267;48.194;11.546;2023-06-14T12:13:42;95635.66;;;25.55;26.53
29239;BME280;16267;48.194;11.546;2023-06-14T12:16:10;95639.19;;;25.50;26.31
29239;BME280;16267;48.194;11.546;2023-06-14T12:18:38;95646.44;;;25.47;25.90
29239;BME280;16267;48.194;11.546;2023-06-14T12:21:08;95649.47;;;25.38;25.65
29239;BME280;16267;48.194;11.546;2023-06-14T12:23:44;95640.09;;;25.17;26.38
29239;BME280;16267;48.194;11.546;2023-06-14T12:26:17;95635.09;;;25.15;26.07
29239;BME280;16267;48.194;11.546;2023-06-14T12:28:45;95635.34;;;25.17;26.09
29239;BME280;16267;48.194;11.546;2023-06-14T12:31:13;95636.56;;;25.22;26.23
29239;BME280;16267;48.194;11.546;2023-06-14T12:33:40;95638.31;;;25.25;25.64
29239;BME280;16267;48.194;11.546;2023-06-14T12:36:10;95636.56;;;25.22;26.39
29239;BME280;16267;48.194;11.546;2023-06-14T12:38:37;95632.56;;;25.23;26.84
29239;BME280;16267;48.194;11.546;2023-06-14T12:41:03;95636.81;;;25.24;26.24
29239;BME280;16267;48.194;11.546;2023-06-14T12:43:29;95631.06;;;25.22;26.41
29239;BME280;16267;48.194;11.546;2023-06-14T12:45:55;95632.28;;;25.26;26.43
29239;BME280;16267;48.194;11.546;2023-06-14T12:48:21;95639.53;;;25.29;26.22
29239;BME280;16267;48.194;11.546;2023-06-14T12:50:47;95629.09;;;25.22;25.50
29239;BME280;16267;48.194;11.546;2023-06-14T12:53:13;95634.03;;;25.29;26.04
29239;BME280;16267;48.194;11.546;2023-06-14T12:55:40;95634.28;;;25.31;26.27
29239;BME280;16267;48.194;11.546;2023-06-14T12:58:06;95642.25;;;25.29;26.57
29239;BME280;16267;48.194;11.546;2023-06-14T13:00:32;95637.06;;;25.26;25.73
29239;BME280;16267;48.194;11.546;2023-06-14T13:02:57;95642.03;;;25.22;25.81